createdAt,value
2022-08-18T00:08:38.397Z,19.26
2022-08-18T00:23:41.086Z,20.75
2022-08-18T00:38:43.392Z,20.706
2022-08-18T00:53:45.706Z,21.204
2022-08-18T01:08:48.313Z,22.077
2022-08-18T01:23:50.807Z,23.428
2022-08-18T01:38:53.234Z,25.611
2022-08-18T01:53:55.508Z,25.57
2022-08-18T02:08:57.795Z,27.146
2022-08-18T02:24:00.550Z,27.314
2022-08-18T02:39:02.814Z,27.656
2022-08-18T02:54:05.131Z,28.137
2022-08-18T03:09:07.348Z,30.769
2022-08-18T03:24:10.753Z,32.218
2022-08-18T03:39:13.075Z,32.314
2022-08-18T03:54:15.314Z,32.938
2022-08-18T04:09:17.570Z,35.094
2022-08-18T04:24:19.805Z,35.737
2022-08-18T04:39:22.029Z,38.084
2022-08-18T04:54:24.257Z,38.727
2022-08-18T05:09:26.874Z,39.039
2022-08-18T05:24:36.813Z,42.141
2022-08-18T05:39:40.027Z,42.535
2022-08-18T05:54:42.337Z,41.041
2022-08-18T06:09:44.713Z,42.423
2022-08-18T06:24:46.933Z,45.691
2022-08-18T06:39:49.228Z,45.08
2022-08-18T06:54:51.783Z,43.558
2022-08-18T07:09:54.082Z,44.295
2022-08-18T07:24:56.282Z,50.489
2022-08-18T07:39:58.601Z,49.072
2022-08-18T07:55:00.945Z,46.323
2022-08-18T08:10:03.178Z,49.909
2022-08-18T08:25:17.467Z,56.439
2022-08-18T08:40:30.824Z,54.614
2022-08-18T08:55:33.076Z,52.989
2022-08-18T09:10:35.309Z,56.671
2022-08-18T09:25:37.489Z,60.242
2022-08-18T09:41:02.012Z,60.801
2022-08-18T09:56:05.657Z,56.985
2022-08-18T10:11:09.428Z,54.854
2022-08-18T10:26:13.435Z,60.436
2022-08-18T10:41:17.739Z,56.284
2022-08-18T10:56:26.694Z,60.215
2022-08-18T11:11:37.064Z,62.703
2022-08-18T11:26:41.451Z,54.353
2022-08-18T11:41:48.801Z,53.787
2022-08-18T11:56:52.918Z,55.559
2022-08-18T12:11:56.194Z,57.608
2022-08-18T12:27:00.931Z,56.52
2022-08-18T12:42:03.417Z,56.275
2022-08-18T12:57:06.716Z,57.879
2022-08-18T13:12:14.608Z,58.297
2022-08-18T13:27:23.061Z,55.483
2022-08-18T13:42:29.367Z,55.947
2022-08-18T13:57:33.752Z,52.806
2022-08-18T14:12:36.143Z,50.581
2022-08-18T14:27:41.825Z,49.833
2022-08-18T14:42:58.815Z,45.313
2022-08-18T14:58:01.151Z,47.77
2022-08-18T15:13:03.465Z,48.685
2022-08-18T15:28:05.921Z,44.707
2022-08-18T15:43:18.912Z,40.444
2022-08-18T15:58:22.463Z,43.651
2022-08-18T16:13:29.137Z,38.19
2022-08-18T16:28:35.024Z,37.421
2022-08-18T16:43:37.778Z,36.836
2022-08-18T16:58:40.074Z,36.619
2022-08-18T17:13:42.396Z,35.494
2022-08-18T17:28:50.309Z,34.457
2022-08-18T17:43:53.099Z,33.325
2022-08-18T17:58:55.460Z,32.824
2022-08-18T18:13:59.218Z,32.378
2022-08-18T18:29:04.237Z,31.19
2022-08-18T18:44:08.771Z,30.257
2022-08-18T18:59:11.016Z,29.499
2022-08-18T19:14:13.361Z,30
2022-08-18T19:29:15.644Z,28.735
2022-08-18T19:44:17.979Z,27.291
2022-08-18T19:59:21.442Z,27.023
2022-08-18T20:14:24.012Z,26.66
2022-08-18T20:29:26.300Z,26.527
2022-08-18T20:44:29.473Z,24.325
2022-08-18T20:59:32.275Z,24.504
2022-08-18T21:14:34.561Z,24.868
2022-08-18T21:29:48.997Z,24.52
2022-08-18T21:44:52.040Z,23.812
2022-08-18T21:59:54.414Z,22.737
2022-08-18T22:14:56.693Z,22.578
2022-08-18T22:29:58.996Z,22.567
2022-08-18T22:45:04.498Z,21.156
2022-08-18T23:00:07.434Z,20.305
2022-08-18T23:15:11.672Z,20.848
2022-08-18T23:30:13.977Z,21.796
2022-08-18T23:45:16.277Z,20.856
